createdAt,value
2023-02-12T00:01:43.720Z,2.60
2023-02-12T00:04:13.124Z,2.60
2023-02-12T00:06:42.926Z,2.60
2023-02-12T00:09:12.310Z,2.60
2023-02-12T00:11:42.024Z,2.60
2023-02-12T00:14:11.316Z,2.60
2023-02-12T00:16:40.967Z,2.60
2023-02-12T00:19:11.757Z,2.50
2023-02-12T00:21:41.436Z,2.50
2023-02-12T00:24:10.762Z,2.50
2023-02-12T00:26:41.044Z,2.40
2023-02-12T00:29:11.489Z,2.40
2023-02-12T00:31:41.372Z,2.40
2023-02-12T00:34:15.949Z,2.40
2023-02-12T00:36:45.960Z,2.40
2023-02-12T00:39:15.334Z,2.50
2023-02-12T00:41:45.364Z,2.40
2023-02-12T00:44:15.088Z,2.40
2023-02-12T00:46:44.983Z,2.40
2023-02-12T00:49:16.289Z,2.40
2023-02-12T00:51:46.425Z,2.40
2023-02-12T00:54:16.131Z,2.40
2023-02-12T00:56:46.003Z,2.30
2023-02-12T00:59:15.281Z,2.40
2023-02-12T01:01:45.124Z,2.40
2023-02-12T01:04:15.863Z,2.40
2023-02-12T01:06:45.193Z,2.30
2023-02-12T01:09:14.921Z,2.30
2023-02-12T01:11:44.556Z,2.30
2023-02-12T01:14:13.956Z,2.30
2023-02-12T01:16:44.148Z,2.30
2023-02-12T01:19:15.316Z,2.30
2023-02-12T01:21:45.528Z,2.30
2023-02-12T01:24:14.792Z,2.30
2023-02-12T01:26:44.788Z,2.30
2023-02-12T01:29:14.060Z,2.20
2023-02-12T01:31:43.970Z,2.20
2023-02-12T01:34:15.037Z,2.10
2023-02-12T01:36:44.664Z,2.10
2023-02-12T01:39:14.802Z,2.10
2023-02-12T01:41:47.018Z,2.10
2023-02-12T01:44:19.580Z,2.20
2023-02-12T01:46:50.970Z,2.20
2023-02-12T01:49:26.395Z,2.00
2023-02-12T01:52:01.321Z,1.90
2023-02-12T01:54:31.937Z,1.90
2023-02-12T01:57:03.437Z,1.80
2023-02-12T01:59:33.428Z,1.70
2023-02-12T02:02:03.213Z,1.60
2023-02-12T02:04:41.965Z,1.60
2023-02-12T02:07:12.547Z,1.50
2023-02-12T02:09:43.377Z,1.40
2023-02-12T02:12:30.575Z,1.30
2023-02-12T02:15:04.114Z,1.20
2023-02-12T02:17:40.245Z,1.20
2023-02-12T02:20:57.853Z,1.20
2023-02-12T02:23:49.132Z,1.20
2023-02-12T02:26:45.747Z,1.10
2023-02-12T02:29:36.719Z,1.00
2023-02-12T02:32:12.068Z,0.90
2023-02-12T02:34:47.523Z,0.80
2023-02-12T02:37:21.180Z,0.80
2023-02-12T02:39:54.618Z,0.70
2023-02-12T02:42:31.723Z,0.60
2023-02-12T02:45:07.904Z,0.50
2023-02-12T02:47:42.884Z,0.50
2023-02-12T02:50:16.123Z,0.40
2023-02-12T02:52:49.790Z,0.40
2023-02-12T02:55:21.961Z,0.30
2023-02-12T02:57:56.438Z,0.40
2023-02-12T03:00:33.309Z,0.30
2023-02-12T03:03:09.795Z,0.20
2023-02-12T03:05:43.662Z,0.20
2023-02-12T03:08:17.024Z,0.20
2023-02-12T03:10:50.903Z,0.30
2023-02-12T03:13:26.841Z,0.20
2023-02-12T03:16:00.846Z,0.10
2023-02-12T03:18:37.655Z,0.10
2023-02-12T03:21:13.028Z,0.10
2023-02-12T03:23:48.895Z,0.00
2023-02-12T03:26:23.825Z,-0.10
2023-02-12T03:28:53.324Z,-0.10
2023-02-12T03:31:35.518Z,-0.20
2023-02-12T03:34:15.175Z,-0.20
2023-02-12T03:36:56.509Z,-0.20
2023-02-12T03:39:32.981Z,-0.20
2023-02-12T03:42:08.414Z,-0.30
2023-02-12T03:44:49.701Z,-0.30
2023-02-12T03:47:26.762Z,-0.30
2023-02-12T03:50:04.434Z,-0.30
2023-02-12T03:52:34.992Z,-0.30
2023-02-12T03:55:05.287Z,-0.30
2023-02-12T03:57:40.064Z,-0.30
2023-02-12T04:00:12.980Z,-0.30
2023-02-12T04:02:43.272Z,-0.30
2023-02-12T04:05:21.508Z,-0.40
2023-02-12T04:07:52.198Z,-0.40
2023-02-12T04:10:27.556Z,-0.40
2023-02-12T04:13:04.835Z,-0.40
2023-02-12T04:15:53.382Z,-0.50
2023-02-12T04:18:30.890Z,-0.50
2023-02-12T04:21:08.726Z,-0.50
2023-02-12T04:23:49.668Z,-0.50
2023-02-12T04:26:29.727Z,-0.50
2023-02-12T04:29:16.478Z,-0.50
2023-02-12T04:31:51.466Z,-0.50
2023-02-12T04:34:28.314Z,-0.50
2023-02-12T04:37:01.963Z,-0.60
2023-02-12T04:39:36.065Z,-0.60
2023-02-12T04:42:06.367Z,-0.70
2023-02-12T04:44:39.604Z,-0.70
2023-02-12T04:47:09.623Z,-0.70
2023-02-12T04:49:39.243Z,-0.80
2023-02-12T04:52:11.434Z,-0.80
2023-02-12T04:54:41.262Z,-0.80
2023-02-12T04:57:11.348Z,-0.80
2023-02-12T04:59:41.670Z,-0.70
2023-02-12T05:02:11.590Z,-0.80
2023-02-12T05:04:41.417Z,-0.70
2023-02-12T05:07:13.094Z,-0.80
2023-02-12T05:09:44.049Z,-0.80
2023-02-12T05:12:13.336Z,-0.80
2023-02-12T05:14:43.093Z,-0.80
2023-02-12T05:17:12.357Z,-0.70
2023-02-12T05:19:42.552Z,-0.70
2023-02-12T05:22:13.307Z,-0.80
2023-02-12T05:24:43.777Z,-0.80
2023-02-12T05:27:13.067Z,-0.70
2023-02-12T05:29:43.003Z,-0.70
2023-02-12T05:32:12.482Z,-0.70
2023-02-12T05:34:42.346Z,-0.70
2023-02-12T05:37:14.358Z,-0.70
2023-02-12T05:39:44.009Z,-0.60
2023-02-12T05:42:13.272Z,-0.70
2023-02-12T05:44:43.179Z,-0.70
2023-02-12T05:47:12.830Z,-0.70
2023-02-12T05:49:43.154Z,-0.70
2023-02-12T05:52:13.894Z,-0.70
2023-02-12T05:54:43.290Z,-0.70
2023-02-12T05:57:12.923Z,-0.70
2023-02-12T05:59:42.863Z,-0.70
2023-02-12T06:02:12.205Z,-0.70
2023-02-12T06:04:42.362Z,-0.80
2023-02-12T06:07:13.124Z,-0.80
2023-02-12T06:09:43.231Z,-0.70
2023-02-12T06:12:12.612Z,-0.80
2023-02-12T06:14:43.300Z,-0.80
2023-02-12T06:17:12.843Z,-0.80
2023-02-12T06:19:42.467Z,-0.80
2023-02-12T06:22:13.383Z,-0.80
2023-02-12T06:24:43.002Z,-0.80
2023-02-12T06:27:12.390Z,-0.70
2023-02-12T06:29:43.394Z,-0.70
2023-02-12T06:32:13.873Z,-0.70
2023-02-12T06:34:43.397Z,-0.70
2023-02-12T06:37:14.502Z,-0.70
2023-02-12T06:39:44.292Z,-0.70
2023-02-12T06:42:13.596Z,-0.70
2023-02-12T06:44:43.257Z,-0.60
2023-02-12T06:47:13.064Z,-0.50
2023-02-12T06:49:42.793Z,-0.40
2023-02-12T06:52:14.447Z,-0.50
2023-02-12T06:54:44.238Z,-0.40
2023-02-12T06:57:13.687Z,-0.30
2023-02-12T06:59:43.786Z,-0.30
2023-02-12T07:02:14.211Z,-0.20
2023-02-12T07:04:43.827Z,-0.20
2023-02-12T07:07:14.644Z,-0.10
2023-02-12T07:09:44.621Z,-0.10
2023-02-12T07:12:14.023Z,0.00
2023-02-12T07:14:43.799Z,0.00
2023-02-12T07:17:13.125Z,0.00
2023-02-12T07:19:43.045Z,0.00
2023-02-12T07:22:13.876Z,0.10
2023-02-12T07:24:43.847Z,0.20
2023-02-12T07:27:13.318Z,0.20
2023-02-12T07:29:43.231Z,0.30
2023-02-12T07:32:12.560Z,0.40
2023-02-12T07:34:42.263Z,0.50
2023-02-12T07:37:11.752Z,0.50
2023-02-12T07:39:43.101Z,0.60
2023-02-12T07:42:15.347Z,0.70
2023-02-12T07:44:45.028Z,0.80
2023-02-12T07:47:14.398Z,0.90
2023-02-12T07:49:44.118Z,1.00
2023-02-12T07:52:14.004Z,1.20
2023-02-12T07:54:45.554Z,1.30
2023-02-12T07:57:14.876Z,1.40
2023-02-12T07:59:44.568Z,1.50
2023-02-12T08:02:14.169Z,1.70
2023-02-12T08:04:44.093Z,1.60
2023-02-12T08:07:13.592Z,1.70
2023-02-12T08:09:44.995Z,1.80
2023-02-12T08:12:14.162Z,1.90
2023-02-12T08:14:44.027Z,2.00
2023-02-12T08:17:13.693Z,2.10
2023-02-12T08:19:43.494Z,2.20
2023-02-12T08:22:13.022Z,2.30
2023-02-12T08:24:44.433Z,2.30
2023-02-12T08:27:13.647Z,2.40
2023-02-12T08:29:43.263Z,2.50
2023-02-12T08:32:14.684Z,2.60
2023-02-12T08:34:44.775Z,2.60
2023-02-12T08:37:14.061Z,2.70
2023-02-12T08:39:45.515Z,2.80
2023-02-12T08:42:14.896Z,2.90
2023-02-12T08:44:44.724Z,3.10
2023-02-12T08:47:14.019Z,3.20
2023-02-12T08:49:43.839Z,3.20
2023-02-12T08:52:13.264Z,3.30
2023-02-12T08:54:44.460Z,3.40
2023-02-12T08:57:13.803Z,3.40
2023-02-12T08:59:43.390Z,3.50
2023-02-12T09:02:13.154Z,3.60
2023-02-12T09:04:42.947Z,3.70
2023-02-12T09:07:12.349Z,3.60
2023-02-12T09:09:43.564Z,3.70
2023-02-12T09:12:12.867Z,3.80
2023-02-12T09:14:42.995Z,3.70
2023-02-12T09:17:12.453Z,3.80
2023-02-12T09:19:42.398Z,3.80
2023-02-12T09:22:11.690Z,3.80
2023-02-12T09:24:41.492Z,3.90
2023-02-12T09:27:12.222Z,3.90
2023-02-12T09:29:42.187Z,4.00
2023-02-12T09:32:11.662Z,4.00
2023-02-12T09:34:41.869Z,4.10
2023-02-12T09:37:11.152Z,4.10
2023-02-12T09:39:41.353Z,4.10
2023-02-12T09:42:42.770Z,4.10
2023-02-12T09:45:17.863Z,4.10
2023-02-12T09:47:53.010Z,4.20
2023-02-12T09:50:47.616Z,4.20
2023-02-12T09:53:19.292Z,4.40
2023-02-12T09:55:49.671Z,4.50
2023-02-12T09:58:35.719Z,4.50
2023-02-12T10:01:13.837Z,4.50
2023-02-12T10:03:45.246Z,4.50
2023-02-12T10:06:18.763Z,4.50
2023-02-12T10:09:04.809Z,4.60
2023-02-12T10:11:56.784Z,4.60
2023-02-12T10:14:54.275Z,4.80
2023-02-12T10:17:34.936Z,4.90
2023-02-12T10:20:41.898Z,5.00
2023-02-12T10:23:33.267Z,5.20
2023-02-12T10:26:11.921Z,5.30
2023-02-12T10:28:43.691Z,5.40
2023-02-12T10:31:21.275Z,5.30
2023-02-12T10:33:54.534Z,5.40
2023-02-12T10:36:38.790Z,5.30
2023-02-12T10:39:19.547Z,5.40
2023-02-12T10:42:02.908Z,5.50
2023-02-12T10:44:33.678Z,5.70
2023-02-12T10:47:04.438Z,5.90
2023-02-12T10:49:35.160Z,6.20
2023-02-12T10:52:17.007Z,6.20
2023-02-12T10:54:47.644Z,6.40
2023-02-12T10:57:22.231Z,6.40
2023-02-12T10:59:54.749Z,6.40
2023-02-12T11:02:30.640Z,6.40
2023-02-12T11:05:01.815Z,6.40
2023-02-12T11:07:31.195Z,6.60
2023-02-12T11:10:00.998Z,6.90
2023-02-12T11:12:36.044Z,7.10
2023-02-12T11:15:15.226Z,7.50
2023-02-12T11:17:48.132Z,7.70
2023-02-12T11:20:28.308Z,8.30
2023-02-12T11:23:00.121Z,8.60
2023-02-12T11:25:32.519Z,8.90
2023-02-12T11:28:06.233Z,9.20
2023-02-12T11:30:36.936Z,9.20
2023-02-12T11:33:19.614Z,9.10
2023-02-12T11:35:55.820Z,9.00
2023-02-12T11:38:32.774Z,9.00
2023-02-12T11:41:19.788Z,8.80
2023-02-12T11:43:50.865Z,8.90
2023-02-12T11:46:23.842Z,9.30
2023-02-12T11:48:57.329Z,9.80
2023-02-12T11:51:33.003Z,9.60
2023-02-12T11:54:06.620Z,9.60
2023-02-12T11:56:44.364Z,9.40
2023-02-12T11:59:26.062Z,9.00
2023-02-12T12:01:58.557Z,8.20
2023-02-12T12:04:32.993Z,7.60
2023-02-12T12:07:08.949Z,7.00
2023-02-12T12:09:46.185Z,6.90
2023-02-12T12:12:20.995Z,6.90
2023-02-12T12:15:11.197Z,6.70
2023-02-12T12:18:06.925Z,6.30
2023-02-12T12:20:43.780Z,5.80
2023-02-12T12:23:18.195Z,5.50
2023-02-12T12:25:52.564Z,5.40
2023-02-12T12:28:36.796Z,5.50
2023-02-12T12:31:11.385Z,5.30
2023-02-12T12:33:45.843Z,5.20
2023-02-12T12:36:44.616Z,5.10
2023-02-12T12:39:21.699Z,4.80
2023-02-12T12:42:28.247Z,4.70
2023-02-12T12:45:15.986Z,4.80
2023-02-12T12:47:58.885Z,4.70
2023-02-12T12:50:50.215Z,4.40
2023-02-12T12:53:31.916Z,4.50
2023-02-12T12:56:19.509Z,4.60
2023-02-12T12:59:02.552Z,4.60
2023-02-12T13:01:57.214Z,4.50
2023-02-12T13:04:52.220Z,4.30
2023-02-12T13:07:43.692Z,4.20
2023-02-12T13:10:26.879Z,4.20
2023-02-12T13:13:22.295Z,4.30
2023-02-12T13:15:58.381Z,4.40
2023-02-12T13:18:37.759Z,4.40
2023-02-12T13:21:17.693Z,4.30
2023-02-12T13:23:54.218Z,4.30
2023-02-12T13:26:31.288Z,4.30
2023-02-12T13:29:08.781Z,4.30
2023-02-12T13:31:48.991Z,4.20
2023-02-12T13:34:20.286Z,4.30
2023-02-12T13:36:50.842Z,4.20
2023-02-12T13:39:25.582Z,4.20
2023-02-12T13:42:16.877Z,4.20
2023-02-12T13:44:53.984Z,4.20
2023-02-12T13:47:37.156Z,4.10
2023-02-12T13:50:19.552Z,4.00
2023-02-12T13:52:57.784Z,4.00
2023-02-12T13:55:33.545Z,4.00
2023-02-12T13:58:45.359Z,4.00
2023-02-12T14:01:47.908Z,3.90
2023-02-12T14:04:34.039Z,3.90
2023-02-12T14:07:07.014Z,4.00
2023-02-12T14:09:40.828Z,3.90
2023-02-12T14:12:14.851Z,4.00
2023-02-12T14:14:47.523Z,4.10
2023-02-12T14:17:45.150Z,4.10
2023-02-12T14:20:27.942Z,4.10
2023-02-12T14:23:26.171Z,4.00
2023-02-12T14:26:04.467Z,4.10
2023-02-12T14:28:45.591Z,4.00
2023-02-12T14:31:35.732Z,4.00
2023-02-12T14:34:52.148Z,4.10
2023-02-12T14:37:38.624Z,4.10
2023-02-12T14:40:40.918Z,4.10
2023-02-12T14:43:30.926Z,4.20
2023-02-12T14:46:21.938Z,4.30
2023-02-12T14:48:54.997Z,4.30
2023-02-12T14:51:40.411Z,4.40
2023-02-12T14:54:18.652Z,4.50
2023-02-12T14:56:50.231Z,4.50
2023-02-12T14:59:24.074Z,4.50
2023-02-12T15:01:55.059Z,4.50
2023-02-12T15:04:30.834Z,4.50
2023-02-12T15:07:08.566Z,4.50
2023-02-12T15:09:46.590Z,4.50
2023-02-12T15:12:22.357Z,4.50
2023-02-12T15:14:57.619Z,4.60
2023-02-12T15:17:34.140Z,4.60
2023-02-12T15:20:08.434Z,4.60
2023-02-12T15:22:42.454Z,4.50
2023-02-12T15:25:26.059Z,4.50
2023-02-12T15:27:59.657Z,4.50
2023-02-12T15:30:31.966Z,4.50
2023-02-12T15:33:04.845Z,4.50
2023-02-12T15:35:37.289Z,4.40
2023-02-12T15:38:09.831Z,4.40
2023-02-12T15:40:56.351Z,4.40
2023-02-12T15:43:30.493Z,4.40
2023-02-12T15:46:00.565Z,4.40
2023-02-12T15:48:33.136Z,4.40
2023-02-12T15:51:10.424Z,4.40
2023-02-12T15:53:41.719Z,4.40
2023-02-12T15:56:16.130Z,4.40
2023-02-12T15:58:52.646Z,4.40
2023-02-12T16:01:24.107Z,4.40
2023-02-12T16:03:55.119Z,4.30
2023-02-12T16:06:26.414Z,4.30
2023-02-12T16:09:03.685Z,4.40
2023-02-12T16:11:35.811Z,4.30
2023-02-12T16:14:07.439Z,4.30
2023-02-12T16:16:42.095Z,4.40
2023-02-12T16:19:22.592Z,4.30
2023-02-12T16:21:56.362Z,4.40
2023-02-12T16:24:32.646Z,4.40
2023-02-12T16:27:09.528Z,4.40
2023-02-12T16:29:46.156Z,4.40
2023-02-12T16:32:34.623Z,4.40
2023-02-12T16:35:23.712Z,4.50
2023-02-12T16:38:00.986Z,4.50
2023-02-12T16:40:34.986Z,4.50
2023-02-12T16:43:24.238Z,4.50
2023-02-12T16:46:03.875Z,4.60
2023-02-12T16:48:38.765Z,4.60
2023-02-12T16:51:08.713Z,4.60
2023-02-12T16:53:47.383Z,4.60
2023-02-12T16:56:21.293Z,4.70
2023-02-12T16:58:55.474Z,4.80
2023-02-12T17:01:28.325Z,4.70
2023-02-12T17:03:58.760Z,4.70
2023-02-12T17:06:30.307Z,4.70
2023-02-12T17:09:00.743Z,4.80
2023-02-12T17:11:30.968Z,4.70
2023-02-12T17:14:02.941Z,4.80
2023-02-12T17:16:33.200Z,4.90
2023-02-12T17:19:02.788Z,4.80
2023-02-12T17:21:38.639Z,4.90
2023-02-12T17:24:11.261Z,4.90
2023-02-12T17:26:41.237Z,4.90
2023-02-12T17:29:12.045Z,4.90
2023-02-12T17:31:42.136Z,4.90
2023-02-12T17:34:11.667Z,4.90
2023-02-12T17:36:41.755Z,4.90
2023-02-12T17:39:13.794Z,5.00
2023-02-12T17:41:44.477Z,5.00
2023-02-12T17:44:15.851Z,5.00
2023-02-12T17:46:45.808Z,5.00
2023-02-12T17:49:15.167Z,5.00
2023-02-12T17:51:46.203Z,4.90
2023-02-12T17:54:17.917Z,5.00
2023-02-12T17:56:47.839Z,5.00
2023-02-12T17:59:19.150Z,5.10
2023-02-12T18:01:48.954Z,5.10
2023-02-12T18:04:18.413Z,5.20
2023-02-12T18:06:48.307Z,5.20
2023-02-12T18:09:18.459Z,5.20
2023-02-12T18:11:49.719Z,5.20
2023-02-12T18:14:20.287Z,5.30
2023-02-12T18:16:50.710Z,5.30
2023-02-12T18:19:20.123Z,5.30
2023-02-12T18:21:50.143Z,5.30
2023-02-12T18:24:19.791Z,5.30
2023-02-12T18:26:49.719Z,5.30
2023-02-12T18:29:20.594Z,5.40
2023-02-12T18:31:51.583Z,5.40
2023-02-12T18:34:21.934Z,5.50
2023-02-12T18:36:51.582Z,5.50
2023-02-12T18:39:20.989Z,5.50
2023-02-12T18:41:51.086Z,5.50
2023-02-12T18:44:23.072Z,5.50
2023-02-12T18:46:53.255Z,5.60
2023-02-12T18:49:22.789Z,5.60
2023-02-12T18:51:52.652Z,5.60
2023-02-12T18:54:23.171Z,5.60
2023-02-12T18:56:55.262Z,5.70
2023-02-12T18:59:27.314Z,5.70
2023-02-12T19:01:57.820Z,5.70
2023-02-12T19:04:28.469Z,5.70
2023-02-12T19:06:58.578Z,5.80
2023-02-12T19:09:28.903Z,5.80
2023-02-12T19:12:02.037Z,5.80
2023-02-12T19:14:33.115Z,5.80
2023-02-12T19:17:03.162Z,5.80
2023-02-12T19:19:32.688Z,5.80
2023-02-12T19:22:03.013Z,5.90
2023-02-12T19:24:45.913Z,5.90
2023-02-12T19:27:18.239Z,6.00
2023-02-12T19:29:49.853Z,5.90
2023-02-12T19:32:19.905Z,6.00
2023-02-12T19:34:49.406Z,6.00
2023-02-12T19:37:20.505Z,6.00
2023-02-12T19:39:50.049Z,6.00
2023-02-12T19:42:20.802Z,6.10
2023-02-12T19:44:51.663Z,6.10
2023-02-12T19:47:21.651Z,6.10
2023-02-12T19:49:51.220Z,6.10
2023-02-12T19:52:21.266Z,6.10
2023-02-12T19:54:50.772Z,6.10
2023-02-12T19:57:20.932Z,6.10
2023-02-12T19:59:53.044Z,6.20
2023-02-12T20:02:23.066Z,6.10
2023-02-12T20:04:52.622Z,6.20
2023-02-12T20:07:22.532Z,6.20
2023-02-12T20:09:52.870Z,6.10
2023-02-12T20:12:23.207Z,6.20
2023-02-12T20:14:56.479Z,6.20
2023-02-12T20:17:26.152Z,6.20
2023-02-12T20:19:55.556Z,6.30
2023-02-12T20:22:26.318Z,6.30
2023-02-12T20:24:56.379Z,6.30
2023-02-12T20:27:27.175Z,6.30
2023-02-12T20:29:58.331Z,6.30
2023-02-12T20:32:28.278Z,6.20
2023-02-12T20:34:57.830Z,6.30
2023-02-12T20:37:27.688Z,6.30
2023-02-12T20:39:57.673Z,6.20
2023-02-12T20:42:27.401Z,6.20
2023-02-12T20:44:58.572Z,6.30
2023-02-12T20:47:30.588Z,6.30
2023-02-12T20:50:00.378Z,6.30
2023-02-12T20:52:30.903Z,6.30
2023-02-12T20:55:00.760Z,6.30
2023-02-12T20:57:32.167Z,6.30
2023-02-12T21:00:03.790Z,6.30
2023-02-12T21:02:34.343Z,6.20
2023-02-12T21:05:03.767Z,6.20
2023-02-12T21:07:35.810Z,6.30
2023-02-12T21:10:06.151Z,6.30
2023-02-12T21:12:36.256Z,6.30
2023-02-12T21:15:07.535Z,6.30
2023-02-12T21:17:37.531Z,6.30
2023-02-12T21:20:08.702Z,6.30
2023-02-12T21:22:38.504Z,6.30
2023-02-12T21:25:08.712Z,6.30
2023-02-12T21:27:40.939Z,6.30
2023-02-12T21:30:12.204Z,6.30
2023-02-12T21:32:44.696Z,6.30
2023-02-12T21:35:15.711Z,6.30
2023-02-12T21:37:46.148Z,6.30
2023-02-12T21:40:15.612Z,6.30
2023-02-12T21:42:45.225Z,6.30
2023-02-12T21:45:16.908Z,6.30
2023-02-12T21:47:46.712Z,6.30
2023-02-12T21:50:16.054Z,6.20
2023-02-12T21:52:46.225Z,6.30
2023-02-12T21:55:15.702Z,6.30
2023-02-12T21:57:47.685Z,6.20
2023-02-12T22:00:19.616Z,6.20
2023-02-12T22:02:49.625Z,6.20
2023-02-12T22:05:19.498Z,6.20
2023-02-12T22:07:51.074Z,6.20
2023-02-12T22:10:20.965Z,6.20
2023-02-12T22:12:50.739Z,6.20
2023-02-12T22:15:22.176Z,6.20
2023-02-12T22:17:51.823Z,6.20
2023-02-12T22:20:21.659Z,6.20
2023-02-12T22:22:51.462Z,6.20
2023-02-12T22:25:20.976Z,6.10
2023-02-12T22:27:51.395Z,6.20
2023-02-12T22:30:22.599Z,6.20
2023-02-12T22:32:52.592Z,6.20
2023-02-12T22:35:21.960Z,6.20
2023-02-12T22:37:51.670Z,6.20
2023-02-12T22:40:21.138Z,6.20
2023-02-12T22:42:50.882Z,6.20
2023-02-12T22:45:22.146Z,6.10
2023-02-12T22:47:51.900Z,6.10
2023-02-12T22:50:21.345Z,6.10
2023-02-12T22:52:51.003Z,6.10
2023-02-12T22:55:20.479Z,6.10
2023-02-12T22:57:50.081Z,6.10
2023-02-12T23:00:22.334Z,6.00
2023-02-12T23:02:52.662Z,6.10
2023-02-12T23:05:21.993Z,6.00
2023-02-12T23:07:51.639Z,6.00
2023-02-12T23:10:21.690Z,5.90
2023-02-12T23:12:51.331Z,5.90
2023-02-12T23:15:22.034Z,6.00
2023-02-12T23:17:53.146Z,6.00
2023-02-12T23:20:22.659Z,5.90
2023-02-12T23:22:52.562Z,5.90
2023-02-12T23:25:21.926Z,5.80
2023-02-12T23:27:51.666Z,5.90
2023-02-12T23:30:23.042Z,5.90
2023-02-12T23:32:52.808Z,5.90
2023-02-12T23:35:22.186Z,5.80
2023-02-12T23:37:51.982Z,5.80
2023-02-12T23:40:21.592Z,5.80
2023-02-12T23:42:51.696Z,5.80
2023-02-12T23:45:22.508Z,5.80
2023-02-12T23:47:52.256Z,5.70
2023-02-12T23:50:21.955Z,5.70
2023-02-12T23:52:51.664Z,5.80
2023-02-12T23:55:20.962Z,5.70
2023-02-12T23:57:51.290Z,5.70
